createdAt,value
2022-08-11T00:00:10.556Z,17.78
2022-08-11T00:02:46.433Z,17.72
2022-08-11T00:05:24.639Z,17.63
2022-08-11T00:07:56.827Z,17.56
2022-08-11T00:10:27.307Z,17.54
2022-08-11T00:13:05.558Z,17.52
2022-08-11T00:15:45.743Z,17.49
2022-08-11T00:18:17.570Z,17.42
2022-08-11T00:20:46.253Z,17.32
2022-08-11T00:23:18.244Z,17.29
2022-08-11T00:25:49.143Z,17.27
2022-08-11T00:28:33.043Z,17.25
2022-08-11T00:31:06.612Z,17.20
2022-08-11T00:33:44.697Z,17.15
2022-08-11T00:36:20.858Z,17.14
2022-08-11T00:38:53.711Z,17.13
2022-08-11T00:41:47.843Z,17.07
2022-08-11T00:44:33.267Z,16.98
2022-08-11T00:47:13.010Z,16.92
2022-08-11T00:50:08.630Z,16.91
2022-08-11T00:52:59.526Z,16.88
2022-08-11T00:56:04.201Z,16.82
2022-08-11T00:58:59.657Z,16.82
2022-08-11T01:01:37.833Z,16.79
2022-08-11T01:04:38.109Z,16.74
2022-08-11T01:08:01.500Z,16.70
2022-08-11T01:10:26.515Z,16.66
2022-08-11T01:13:29.482Z,16.63
2022-08-11T01:16:29.652Z,16.50
2022-08-11T01:19:15.492Z,16.45
2022-08-11T01:22:20.482Z,16.39
2022-08-11T01:25:30.353Z,16.32
2022-08-11T01:28:30.987Z,16.24
2022-08-11T01:31:19.126Z,16.19
2022-08-11T01:33:54.306Z,16.16
2022-08-11T01:36:42.385Z,16.12
2022-08-11T01:39:47.478Z,16.11
2022-08-11T01:42:42.873Z,16.10
2022-08-11T01:45:29.389Z,16.08
2022-08-11T01:48:09.223Z,16.06
2022-08-11T01:50:42.859Z,16.02
2022-08-11T01:53:13.591Z,16.01
2022-08-11T01:56:06.393Z,15.99
2022-08-11T01:58:44.069Z,15.95
2022-08-11T02:01:36.752Z,15.89
2022-08-11T02:04:19.815Z,15.86
2022-08-11T02:07:58.191Z,15.79
2022-08-11T02:11:04.613Z,15.68
2022-08-11T02:14:00.305Z,15.60
2022-08-11T02:16:47.772Z,15.52
2022-08-11T02:19:37.346Z,15.48
2022-08-11T02:22:26.207Z,15.46
2022-08-11T02:25:05.037Z,15.43
2022-08-11T02:27:48.207Z,15.38
2022-08-11T02:30:21.111Z,15.36
2022-08-11T02:33:14.219Z,15.36
2022-08-11T02:35:55.520Z,15.35
2022-08-11T02:38:31.512Z,15.34
2022-08-11T02:41:31.159Z,15.31
2022-08-11T02:44:34.719Z,15.28
2022-08-11T02:47:14.619Z,15.22
2022-08-11T02:50:06.223Z,15.18
2022-08-11T02:52:50.064Z,15.16
2022-08-11T02:55:48.870Z,15.15
2022-08-11T02:58:31.540Z,15.08
2022-08-11T03:01:05.178Z,15.01
2022-08-11T03:03:51.403Z,14.99
2022-08-11T03:06:36.075Z,14.96
2022-08-11T03:09:06.428Z,14.94
2022-08-11T03:12:17.956Z,14.90
2022-08-11T03:15:15.209Z,14.86
2022-08-11T03:18:16.533Z,14.84
2022-08-11T03:21:16.262Z,14.83
2022-08-11T03:23:53.222Z,14.82
2022-08-11T03:26:38.806Z,14.81
2022-08-11T03:29:25.059Z,14.76
2022-08-11T03:32:02.688Z,14.67
2022-08-11T03:34:31.927Z,14.60
2022-08-11T03:37:16.030Z,14.58
2022-08-11T03:40:07.784Z,14.58
2022-08-11T03:42:57.636Z,14.57
2022-08-11T03:45:36.250Z,14.55
2022-08-11T03:48:28.169Z,14.54
2022-08-11T03:51:23.654Z,14.54
2022-08-11T03:54:28.731Z,14.54
2022-08-11T03:57:11.610Z,14.51
2022-08-11T03:59:56.743Z,14.50
2022-08-11T04:02:55.079Z,14.47
2022-08-11T04:05:50.679Z,14.46
2022-08-11T04:09:05.938Z,14.44
2022-08-11T04:11:49.223Z,14.41
2022-08-11T04:14:35.226Z,14.37
2022-08-11T04:17:02.764Z,14.34
2022-08-11T04:19:53.165Z,14.35
2022-08-11T04:22:24.204Z,14.29
2022-08-11T04:25:15.088Z,14.26
2022-08-11T04:28:07.609Z,14.21
2022-08-11T04:30:53.756Z,14.18
2022-08-11T04:33:50.010Z,14.19
2022-08-11T04:37:00.312Z,14.21
2022-08-11T04:40:02.014Z,14.19
2022-08-11T04:43:09.333Z,14.15
2022-08-11T04:45:45.924Z,14.02
2022-08-11T04:48:42.970Z,13.96
2022-08-11T04:51:51.129Z,13.96
2022-08-11T04:54:56.099Z,13.94
2022-08-11T04:57:50.694Z,13.93
2022-08-11T05:00:44.873Z,13.93
2022-08-11T05:03:18.124Z,13.92
2022-08-11T05:06:27.263Z,13.89
2022-08-11T05:09:20.291Z,13.89
2022-08-11T05:11:50.698Z,13.88
2022-08-11T05:14:52.143Z,13.88
2022-08-11T05:18:18.029Z,13.85
2022-08-11T05:21:09.810Z,13.85
2022-08-11T05:24:02.093Z,13.85
2022-08-11T05:26:56.506Z,13.86
2022-08-11T05:29:57.782Z,13.89
2022-08-11T05:32:52.570Z,13.91
2022-08-11T05:36:01.704Z,14.07
2022-08-11T05:38:50.938Z,14.79
2022-08-11T05:41:43.317Z,15.40
2022-08-11T05:44:37.731Z,15.48
2022-08-11T05:47:24.380Z,15.36
2022-08-11T05:50:13.696Z,15.20
2022-08-11T05:53:09.262Z,15.08
2022-08-11T05:56:02.304Z,15.01
2022-08-11T05:58:43.229Z,14.94
2022-08-11T06:01:21.762Z,14.89
2022-08-11T06:04:11.234Z,14.88
2022-08-11T06:06:45.158Z,14.91
2022-08-11T06:09:14.571Z,15.00
2022-08-11T06:11:45.086Z,15.32
2022-08-11T06:14:15.669Z,16.33
2022-08-11T06:16:47.868Z,17.47
2022-08-11T06:19:17.251Z,18.50
2022-08-11T06:21:47.091Z,19.40
2022-08-11T06:24:16.130Z,20.23
2022-08-11T06:29:54.494Z,21.68
2022-08-11T06:32:44.956Z,22.30
2022-08-11T06:35:34.982Z,22.89
2022-08-11T06:38:16.341Z,23.36
2022-08-11T06:41:12.260Z,23.78
2022-08-11T06:44:13.209Z,24.21
2022-08-11T06:46:47.781Z,24.54
2022-08-11T06:49:36.143Z,24.91
2022-08-11T06:52:34.077Z,25.29
2022-08-11T06:55:06.240Z,25.58
2022-08-11T06:57:55.974Z,25.97
2022-08-11T07:00:28.841Z,26.41
2022-08-11T07:03:19.881Z,26.74
2022-08-11T07:06:01.814Z,26.92
2022-08-11T07:08:59.976Z,27.14
2022-08-11T07:12:05.115Z,27.54
2022-08-11T07:14:52.945Z,27.83
2022-08-11T07:17:32.093Z,28.14
2022-08-11T07:20:21.372Z,28.38
2022-08-11T07:23:15.170Z,28.51
2022-08-11T07:26:06.030Z,28.69
2022-08-11T07:28:56.046Z,28.92
2022-08-11T07:31:29.804Z,29.21
2022-08-11T07:34:20.723Z,29.61
2022-08-11T07:36:57.656Z,29.87
2022-08-11T07:39:27.907Z,30.19
2022-08-11T07:42:00.020Z,30.37
2022-08-11T07:44:35.126Z,30.58
2022-08-11T07:47:22.379Z,30.71
2022-08-11T07:50:12.183Z,30.80
2022-08-11T07:52:40.848Z,30.84
2022-08-11T07:55:14.832Z,31.04
2022-08-11T07:58:15.974Z,31.23
2022-08-11T08:01:22.265Z,31.50
2022-08-11T08:04:10.383Z,31.83
2022-08-11T08:06:58.704Z,32.08
2022-08-11T08:09:46.584Z,32.36
2022-08-11T08:12:34.190Z,32.66
2022-08-11T08:15:26.398Z,32.84
2022-08-11T08:18:09.953Z,33.04
2022-08-11T08:20:57.029Z,33.27
2022-08-11T08:23:36.090Z,33.18
2022-08-11T08:26:27.484Z,33.21
2022-08-11T08:29:16.615Z,33.07
2022-08-11T08:31:46.138Z,33.12
2022-08-11T08:34:15.781Z,33.36
2022-08-11T08:36:49.076Z,33.61
2022-08-11T08:39:21.898Z,33.86
2022-08-11T08:41:53.517Z,34.07
2022-08-11T08:44:40.872Z,34.34
2022-08-11T08:47:43.125Z,34.16
2022-08-11T08:50:16.188Z,34.04
2022-08-11T08:52:52.561Z,34.32
2022-08-11T08:55:21.471Z,34.59
2022-08-11T08:57:50.938Z,34.52
2022-08-11T09:00:22.969Z,34.66
2022-08-11T09:02:52.443Z,34.72
2022-08-11T09:05:21.480Z,34.66
2022-08-11T09:07:51.358Z,34.96
2022-08-11T09:10:20.691Z,35.16
2022-08-11T09:12:50.159Z,35.22
2022-08-11T09:15:19.644Z,35.30
2022-08-11T09:17:51.820Z,35.31
2022-08-11T09:20:25.620Z,35.39
2022-08-11T09:24:08.335Z,35.60
2022-08-11T09:26:31.041Z,35.46
2022-08-11T09:29:01.218Z,35.52
2022-08-11T09:31:39.421Z,35.56
2022-08-11T09:34:11.039Z,35.71
2022-08-11T09:37:00.092Z,36.13
2022-08-11T09:39:50.896Z,36.32
2022-08-11T09:42:23.333Z,36.47
2022-08-11T09:44:53.921Z,36.62
2022-08-11T09:47:23.151Z,36.87
2022-08-11T09:49:54.067Z,36.98
2022-08-11T09:52:24.413Z,37.02
2022-08-11T09:54:53.652Z,36.96
2022-08-11T09:57:41.039Z,37.08
2022-08-11T10:00:13.149Z,37.23
2022-08-11T10:02:47.406Z,37.14
2022-08-11T10:05:37.885Z,37.10
2022-08-11T10:08:09.147Z,37.06
2022-08-11T10:10:39.259Z,36.71
2022-08-11T10:14:04.902Z,35.80
2022-08-11T10:16:15.625Z,34.82
2022-08-11T10:18:52.399Z,34.44
2022-08-11T10:21:41.480Z,34.74
2022-08-11T10:24:30.451Z,35.15
2022-08-11T10:27:03.526Z,35.32
2022-08-11T10:29:52.257Z,35.63
2022-08-11T10:32:58.102Z,35.41
2022-08-11T10:35:29.662Z,35.10
2022-08-11T10:38:06.826Z,35.14
2022-08-11T10:40:39.886Z,35.34
2022-08-11T10:43:14.065Z,35.53
2022-08-11T10:46:05.278Z,35.80
2022-08-11T10:48:38.268Z,36.27
2022-08-11T10:51:13.702Z,36.74
2022-08-11T10:54:07.147Z,37.08
2022-08-11T10:56:58.135Z,37.01
2022-08-11T10:59:30.300Z,37.33
2022-08-11T11:01:59.197Z,37.74
2022-08-11T11:04:50.934Z,38.10
2022-08-11T11:07:24.220Z,38.20
2022-08-11T11:09:59.337Z,38.05
2022-08-11T11:13:04.864Z,37.84
2022-08-11T11:15:54.820Z,37.90
2022-08-11T11:18:26.204Z,38.27
2022-08-11T11:21:04.558Z,38.23
2022-08-11T11:24:07.740Z,38.43
2022-08-11T11:27:17.910Z,38.65
2022-08-11T11:29:48.437Z,38.78
2022-08-11T11:32:36.045Z,38.98
2022-08-11T11:35:28.198Z,38.88
2022-08-11T11:38:03.902Z,38.89
2022-08-11T11:40:33.720Z,39.07
2022-08-11T11:43:02.531Z,39.15
2022-08-11T11:45:30.486Z,39.09
2022-08-11T11:48:00.716Z,38.81
2022-08-11T11:50:32.851Z,38.57
2022-08-11T11:53:03.967Z,38.41
2022-08-11T11:55:32.312Z,38.39
2022-08-11T11:58:22.188Z,38.02
2022-08-11T12:01:10.737Z,37.87
2022-08-11T12:03:40.228Z,38.00
2022-08-11T12:06:09.684Z,37.92
2022-08-11T12:08:37.787Z,37.66
2022-08-11T12:11:27.569Z,37.47
2022-08-11T12:13:59.144Z,37.10
2022-08-11T12:16:33.683Z,36.85
2022-08-11T12:19:08.348Z,37.10
2022-08-11T12:21:37.512Z,37.25
2022-08-11T12:24:29.329Z,37.39
2022-08-11T12:27:18.114Z,37.61
2022-08-11T12:29:54.367Z,37.82
2022-08-11T12:32:30.319Z,37.56
2022-08-11T12:34:58.760Z,37.30
2022-08-11T12:37:43.820Z,37.41
2022-08-11T12:40:56.533Z,37.37
2022-08-11T12:43:56.510Z,37.29
2022-08-11T12:46:32.005Z,37.00
2022-08-11T12:49:41.888Z,36.70
2022-08-11T12:52:25.539Z,36.52
2022-08-11T12:55:35.008Z,36.46
2022-08-11T12:58:17.931Z,36.45
2022-08-11T13:01:05.015Z,36.52
2022-08-11T13:03:56.917Z,36.27
2022-08-11T13:06:25.354Z,36.34
2022-08-11T13:09:01.010Z,36.37
2022-08-11T13:11:56.153Z,36.46
2022-08-11T13:14:28.726Z,36.22
2022-08-11T13:17:15.338Z,36.11
2022-08-11T13:19:49.596Z,36.02
2022-08-11T13:22:24.466Z,36.07
2022-08-11T13:24:55.386Z,36.27
2022-08-11T13:27:24.814Z,36.00
2022-08-11T13:30:13.201Z,35.75
2022-08-11T13:32:42.866Z,35.65
2022-08-11T13:35:17.881Z,35.73
2022-08-11T13:38:18.712Z,35.57
2022-08-11T13:40:54.731Z,35.38
2022-08-11T13:43:24.320Z,35.43
2022-08-11T13:46:13.004Z,35.42
2022-08-11T13:48:42.274Z,35.21
2022-08-11T13:51:34.306Z,34.95
2022-08-11T13:54:24.424Z,34.85
2022-08-11T13:56:57.256Z,34.75
2022-08-11T13:59:29.968Z,34.43
2022-08-11T14:02:28.522Z,34.18
2022-08-11T14:05:07.176Z,34.14
2022-08-11T14:07:42.896Z,34.12
2022-08-11T14:10:13.341Z,34.06
2022-08-11T14:13:01.924Z,33.96
2022-08-11T14:15:33.507Z,33.86
2022-08-11T14:18:12.031Z,33.57
2022-08-11T14:21:01.007Z,33.36
2022-08-11T14:23:35.574Z,33.17
2022-08-11T14:26:21.999Z,32.81
2022-08-11T14:29:02.925Z,32.45
2022-08-11T14:31:32.990Z,32.16
2022-08-11T14:34:04.452Z,32.04
2022-08-11T14:36:36.128Z,31.75
2022-08-11T14:39:12.904Z,31.54
2022-08-11T14:42:10.177Z,31.36
2022-08-11T14:45:05.595Z,31.12
2022-08-11T14:47:39.443Z,30.66
2022-08-11T14:50:14.084Z,30.34
2022-08-11T14:52:49.029Z,30.20
2022-08-11T14:55:36.675Z,30.08
2022-08-11T14:58:06.048Z,29.93
2022-08-11T15:00:34.757Z,29.85
2022-08-11T15:03:11.679Z,29.72
2022-08-11T15:05:53.727Z,29.54
2022-08-11T15:08:54.085Z,29.41
2022-08-11T15:11:43.107Z,29.36
2022-08-11T15:14:12.750Z,29.35
2022-08-11T15:17:03.934Z,29.28
2022-08-11T15:19:40.094Z,29.25
2022-08-11T15:22:29.432Z,29.26
2022-08-11T15:25:00.303Z,29.16
2022-08-11T15:27:49.646Z,28.94
2022-08-11T15:30:35.731Z,28.82
2022-08-11T15:33:25.331Z,28.73
2022-08-11T15:36:13.519Z,28.80
2022-08-11T15:38:47.587Z,28.80
2022-08-11T15:41:36.842Z,28.65
2022-08-11T15:44:51.382Z,28.51
2022-08-11T15:47:19.945Z,28.39
2022-08-11T15:50:11.558Z,28.39
2022-08-11T15:52:52.877Z,28.46
2022-08-11T15:55:23.713Z,28.41
2022-08-11T15:58:12.985Z,28.37
2022-08-11T16:01:08.663Z,28.28
2022-08-11T16:04:07.421Z,28.18
2022-08-11T16:06:58.587Z,28.01
2022-08-11T16:09:51.919Z,28.01
2022-08-11T16:12:26.633Z,28.03
2022-08-11T16:15:23.645Z,27.99
2022-08-11T16:17:56.701Z,27.94
2022-08-11T16:20:26.935Z,27.90
2022-08-11T16:23:01.891Z,27.78
2022-08-11T16:26:38.715Z,27.71
2022-08-11T16:28:23.481Z,27.68
2022-08-11T16:30:52.870Z,27.64
2022-08-11T16:33:51.315Z,27.63
2022-08-11T16:36:33.059Z,27.55
2022-08-11T16:39:02.160Z,27.48
2022-08-11T16:41:52.592Z,27.36
2022-08-11T16:44:40.355Z,27.38
2022-08-11T16:47:13.308Z,27.35
2022-08-11T16:49:52.388Z,27.32
2022-08-11T16:52:23.263Z,27.24
2022-08-11T16:54:52.848Z,27.14
2022-08-11T16:58:01.484Z,27.08
2022-08-11T17:00:30.019Z,27.01
2022-08-11T17:03:20.533Z,26.95
2022-08-11T17:06:12.273Z,26.84
2022-08-11T17:09:12.100Z,26.81
2022-08-11T17:12:04.263Z,26.76
2022-08-11T17:14:41.062Z,26.65
2022-08-11T17:17:33.207Z,26.52
2022-08-11T17:20:40.964Z,26.40
2022-08-11T17:23:15.078Z,26.28
2022-08-11T17:25:59.466Z,26.14
2022-08-11T17:28:34.335Z,26.07
2022-08-11T17:31:23.042Z,25.99
2022-08-11T17:34:10.895Z,25.98
2022-08-11T17:36:44.509Z,25.92
2022-08-11T17:39:15.286Z,25.83
2022-08-11T17:42:03.413Z,25.76
2022-08-11T17:44:51.628Z,25.72
2022-08-11T17:47:39.124Z,25.68
2022-08-11T17:50:17.829Z,25.66
2022-08-11T17:53:14.116Z,25.61
2022-08-11T17:56:01.230Z,25.57
2022-08-11T17:58:47.284Z,25.58
2022-08-11T18:01:17.218Z,25.53
2022-08-11T18:03:54.570Z,25.46
2022-08-11T18:06:34.492Z,25.40
2022-08-11T18:09:25.627Z,25.33
2022-08-11T18:12:14.334Z,25.29
2022-08-11T18:15:16.042Z,25.21
2022-08-11T18:18:03.756Z,25.12
2022-08-11T18:20:50.389Z,25.13
2022-08-11T18:23:45.655Z,25.04
2022-08-11T18:26:39.751Z,24.96
2022-08-11T18:29:27.470Z,24.92
2022-08-11T18:32:21.799Z,24.93
2022-08-11T18:35:13.749Z,24.88
2022-08-11T18:38:05.932Z,24.83
2022-08-11T18:40:54.319Z,24.73
2022-08-11T18:43:43.103Z,24.67
2022-08-11T18:46:35.037Z,24.59
2022-08-11T18:50:02.458Z,24.47
2022-08-11T18:52:41.771Z,24.33
2022-08-11T18:55:35.436Z,24.28
2022-08-11T18:58:26.260Z,24.21
2022-08-11T19:01:17.506Z,24.16
2022-08-11T19:04:11.018Z,24.08
2022-08-11T19:07:00.212Z,24.02
2022-08-11T19:09:48.544Z,23.97
2022-08-11T19:12:36.182Z,23.89
2022-08-11T19:15:24.536Z,23.82
2022-08-11T19:18:12.604Z,23.77
2022-08-11T19:21:01.394Z,23.70
2022-08-11T19:23:55.039Z,23.61
2022-08-11T19:26:42.681Z,23.52
2022-08-11T19:30:07.472Z,23.46
2022-08-11T19:32:38.353Z,23.40
2022-08-11T19:35:25.300Z,23.38
2022-08-11T19:38:12.967Z,23.29
2022-08-11T19:41:01.113Z,23.24
2022-08-11T19:43:49.117Z,23.19
2022-08-11T19:46:39.008Z,23.04
2022-08-11T19:49:26.160Z,22.95
2022-08-11T19:52:13.171Z,22.85
2022-08-11T19:55:00.634Z,22.78
2022-08-11T19:57:48.811Z,22.67
2022-08-11T20:00:37.989Z,22.58
2022-08-11T20:03:32.377Z,22.51
2022-08-11T20:06:21.413Z,22.43
2022-08-11T20:09:09.501Z,22.39
2022-08-11T20:11:59.574Z,22.29
2022-08-11T20:14:49.254Z,22.23
2022-08-11T20:17:37.587Z,22.16
2022-08-11T20:20:25.725Z,22.08
2022-08-11T20:23:16.449Z,22.00
2022-08-11T20:26:27.623Z,21.94
2022-08-11T20:29:12.919Z,21.88
2022-08-11T20:32:01.494Z,21.77
2022-08-11T20:34:54.770Z,21.63
2022-08-11T20:37:45.771Z,21.57
2022-08-11T20:40:37.260Z,21.52
2022-08-11T20:44:07.130Z,21.47
2022-08-11T20:46:35.056Z,21.48
2022-08-11T20:49:23.216Z,21.41
2022-08-11T20:52:09.931Z,21.36
2022-08-11T20:54:58.116Z,21.30
2022-08-11T21:00:55.577Z,21.11
2022-08-11T21:03:54.765Z,21.07
2022-08-11T21:06:48.574Z,21.00
2022-08-11T21:09:58.511Z,20.95
2022-08-11T21:12:50.538Z,20.93
2022-08-11T21:15:47.459Z,20.87
2022-08-11T21:18:45.693Z,20.82
2022-08-11T21:21:45.474Z,20.77
2022-08-11T21:24:34.085Z,20.72
2022-08-11T21:27:24.961Z,20.63
2022-08-11T21:30:12.545Z,20.56
2022-08-11T21:33:01.796Z,20.46
2022-08-11T21:35:49.317Z,20.40
2022-08-11T21:38:36.677Z,20.38
2022-08-11T21:41:25.394Z,20.33
2022-08-11T21:44:16.028Z,20.24
2022-08-11T21:47:03.084Z,20.21
2022-08-11T21:49:51.736Z,20.19
2022-08-11T21:52:38.459Z,20.14
2022-08-11T21:55:25.611Z,20.12
2022-08-11T21:58:13.813Z,20.09
2022-08-11T22:01:02.039Z,20.03
2022-08-11T22:03:49.698Z,19.94
2022-08-11T22:06:37.287Z,19.90
2022-08-11T22:09:23.468Z,19.84
2022-08-11T22:12:34.250Z,19.81
2022-08-11T22:15:17.213Z,19.80
2022-08-11T22:18:03.452Z,19.72
2022-08-11T22:20:51.161Z,19.64
2022-08-11T22:23:39.045Z,19.52
2022-08-11T22:26:26.187Z,19.48
2022-08-11T22:29:12.892Z,19.48
2022-08-11T22:32:00.534Z,19.46
2022-08-11T22:34:53.284Z,19.45
2022-08-11T22:37:42.203Z,19.43
2022-08-11T22:40:29.325Z,19.39
2022-08-11T22:43:15.359Z,19.34
2022-08-11T22:46:01.637Z,19.32
2022-08-11T22:48:49.687Z,19.30
2022-08-11T22:51:38.346Z,19.24
2022-08-11T22:54:25.926Z,19.20
2022-08-11T22:57:12.662Z,19.12
2022-08-11T22:59:59.191Z,19.05
2022-08-11T23:02:47.002Z,19.02
2022-08-11T23:05:34.851Z,19.03
2022-08-11T23:08:21.392Z,19.00
2022-08-11T23:11:08.719Z,18.97
2022-08-11T23:13:55.509Z,18.94
2022-08-11T23:16:42.732Z,18.90
2022-08-11T23:20:08.796Z,18.89
2022-08-11T23:22:36.862Z,18.87
2022-08-11T23:25:36.903Z,18.81
2022-08-11T23:28:25.003Z,18.76
2022-08-11T23:31:15.671Z,18.75
2022-08-11T23:34:05.360Z,18.68
2022-08-11T23:36:51.555Z,18.66
2022-08-11T23:39:37.828Z,18.59
2022-08-11T23:42:24.021Z,18.51
2022-08-11T23:45:10.609Z,18.49
2022-08-11T23:47:58.148Z,18.42
2022-08-11T23:50:44.619Z,18.36
2022-08-11T23:53:34.453Z,18.37
2022-08-11T23:56:22.153Z,18.33
2022-08-11T23:59:11.748Z,18.33
